sensor_id;sensor_type;location;lat;lon;timestamp;P1;durP1;ratioP1;P2;durP2;ratioP2
30543;SDS011;43388;46.308;4.600;2023-02-17T00:00:53;9.95;;;8.15;;
30543;SDS011;43388;46.308;4.600;2023-02-17T00:03:19;11.10;;;8.27;;
30543;SDS011;43388;46.308;4.600;2023-02-17T00:05:45;8.52;;;7.68;;
30543;SDS011;43388;46.308;4.600;2023-02-17T00:08:11;10.48;;;8.25;;
30543;SDS011;43388;46.308;4.600;2023-02-17T00:10:37;9.18;;;8.27;;
30543;SDS011;43388;46.308;4.600;2023-02-17T00:13:03;9.23;;;7.53;;
30543;SDS011;43388;46.308;4.600;2023-02-17T00:15:29;9.88;;;8.23;;
30543;SDS011;43388;46.308;4.600;2023-02-17T00:17:55;11.32;;;8.30;;
30543;SDS011;43388;46.308;4.600;2023-02-17T00:20:21;10.80;;;8.13;;
30543;SDS011;43388;46.308;4.600;2023-02-17T00:22:47;9.63;;;8.57;;
30543;SDS011;43388;46.308;4.600;2023-02-17T00:25:13;10.68;;;8.73;;
30543;SDS011;43388;46.308;4.600;2023-02-17T00:27:39;14.57;;;8.77;;
30543;SDS011;43388;46.308;4.600;2023-02-17T00:30:06;10.98;;;8.52;;
30543;SDS011;43388;46.308;4.600;2023-02-17T00:32:32;9.57;;;7.57;;
30543;SDS011;43388;46.308;4.600;2023-02-17T00:34:59;12.07;;;8.30;;
30543;SDS011;43388;46.308;4.600;2023-02-17T00:37:25;11.25;;;8.43;;
30543;SDS011;43388;46.308;4.600;2023-02-17T00:39:51;8.48;;;7.60;;
30543;SDS011;43388;46.308;4.600;2023-02-17T00:42:17;8.73;;;7.72;;
30543;SDS011;43388;46.308;4.600;2023-02-17T00:44:43;8.85;;;6.85;;
30543;SDS011;43388;46.308;4.600;2023-02-17T00:47:09;8.45;;;6.93;;
30543;SDS011;43388;46.308;4.600;2023-02-17T00:49:35;9.27;;;6.70;;
30543;SDS011;43388;46.308;4.600;2023-02-17T00:52:01;8.05;;;7.35;;
30543;SDS011;43388;46.308;4.600;2023-02-17T00:54:27;10.25;;;7.95;;
30543;SDS011;43388;46.308;4.600;2023-02-17T00:56:53;9.55;;;7.18;;
30543;SDS011;43388;46.308;4.600;2023-02-17T00:59:19;8.77;;;7.10;;
30543;SDS011;43388;46.308;4.600;2023-02-17T01:01:46;9.38;;;8.05;;
30543;SDS011;43388;46.308;4.600;2023-02-17T01:04:12;11.40;;;7.30;;
30543;SDS011;43388;46.308;4.600;2023-02-17T01:06:38;8.20;;;7.35;;
30543;SDS011;43388;46.308;4.600;2023-02-17T01:09:06;7.90;;;6.57;;
30543;SDS011;43388;46.308;4.600;2023-02-17T01:11:32;10.02;;;6.82;;
30543;SDS011;43388;46.308;4.600;2023-02-17T01:13:59;11.05;;;8.02;;
30543;SDS011;43388;46.308;4.600;2023-02-17T01:16:26;7.78;;;6.90;;
30543;SDS011;43388;46.308;4.600;2023-02-17T01:18:53;12.25;;;7.75;;
30543;SDS011;43388;46.308;4.600;2023-02-17T01:21:23;10.15;;;8.13;;
30543;SDS011;43388;46.308;4.600;2023-02-17T01:23:50;8.57;;;6.95;;
30543;SDS011;43388;46.308;4.600;2023-02-17T01:26:18;8.73;;;7.75;;
30543;SDS011;43388;46.308;4.600;2023-02-17T01:28:44;10.75;;;6.95;;
30543;SDS011;43388;46.308;4.600;2023-02-17T01:31:10;10.15;;;8.15;;
30543;SDS011;43388;46.308;4.600;2023-02-17T01:33:36;9.65;;;7.13;;
30543;SDS011;43388;46.308;4.600;2023-02-17T01:36:03;19.00;;;7.63;;
30543;SDS011;43388;46.308;4.600;2023-02-17T01:38:30;7.78;;;6.95;;
30543;SDS011;43388;46.308;4.600;2023-02-17T01:40:56;9.23;;;7.80;;
30543;SDS011;43388;46.308;4.600;2023-02-17T01:43:22;11.35;;;7.55;;
30543;SDS011;43388;46.308;4.600;2023-02-17T01:45:58;8.60;;;7.70;;
30543;SDS011;43388;46.308;4.600;2023-02-17T01:53:43;11.35;;;7.82;;
30543;SDS011;43388;46.308;4.600;2023-02-17T01:56:10;11.38;;;7.45;;
30543;SDS011;43388;46.308;4.600;2023-02-17T01:58:38;11.65;;;7.25;;
30543;SDS011;43388;46.308;4.600;2023-02-17T02:01:05;13.15;;;8.10;;
30543;SDS011;43388;46.308;4.600;2023-02-17T02:03:32;13.82;;;8.32;;
30543;SDS011;43388;46.308;4.600;2023-02-17T02:05:59;17.02;;;9.02;;
30543;SDS011;43388;46.308;4.600;2023-02-17T02:08:27;17.48;;;8.32;;
30543;SDS011;43388;46.308;4.600;2023-02-17T02:10:55;10.60;;;7.97;;
30543;SDS011;43388;46.308;4.600;2023-02-17T02:13:21;11.05;;;8.10;;
30543;SDS011;43388;46.308;4.600;2023-02-17T02:16:00;10.88;;;8.23;;
30543;SDS011;43388;46.308;4.600;2023-02-17T02:18:40;15.20;;;8.45;;
30543;SDS011;43388;46.308;4.600;2023-02-17T02:21:24;16.80;;;9.23;;
30543;SDS011;43388;46.308;4.600;2023-02-17T02:24:11;16.33;;;8.93;;
30543;SDS011;43388;46.308;4.600;2023-02-17T02:34:36;14.10;;;8.95;;
30543;SDS011;43388;46.308;4.600;2023-02-17T02:37:08;13.93;;;9.05;;
30543;SDS011;43388;46.308;4.600;2023-02-17T02:39:37;11.73;;;8.68;;
30543;SDS011;43388;46.308;4.600;2023-02-17T02:42:04;13.43;;;8.10;;
30543;SDS011;43388;46.308;4.600;2023-02-17T02:44:32;13.95;;;9.18;;
30543;SDS011;43388;46.308;4.600;2023-02-17T02:47:00;17.25;;;10.02;;
30543;SDS011;43388;46.308;4.600;2023-02-17T02:49:27;17.02;;;8.90;;
30543;SDS011;43388;46.308;4.600;2023-02-17T02:52:04;20.38;;;9.05;;
30543;SDS011;43388;46.308;4.600;2023-02-17T03:02:50;14.73;;;8.82;;
30543;SDS011;43388;46.308;4.600;2023-02-17T03:05:31;17.85;;;9.18;;
30543;SDS011;43388;46.308;4.600;2023-02-17T03:07:59;13.18;;;8.40;;
30543;SDS011;43388;46.308;4.600;2023-02-17T03:10:27;13.07;;;7.90;;
30543;SDS011;43388;46.308;4.600;2023-02-17T03:12:53;17.42;;;8.65;;
30543;SDS011;43388;46.308;4.600;2023-02-17T03:15:22;18.13;;;9.70;;
30543;SDS011;43388;46.308;4.600;2023-02-17T03:17:50;18.38;;;9.77;;
30543;SDS011;43388;46.308;4.600;2023-02-17T03:20:16;16.95;;;9.55;;
30543;SDS011;43388;46.308;4.600;2023-02-17T03:22:44;13.75;;;8.77;;
30543;SDS011;43388;46.308;4.600;2023-02-17T03:25:10;13.93;;;8.93;;
30543;SDS011;43388;46.308;4.600;2023-02-17T03:27:36;13.02;;;9.05;;
30543;SDS011;43388;46.308;4.600;2023-02-17T03:30:02;18.48;;;9.57;;
30543;SDS011;43388;46.308;4.600;2023-02-17T03:32:29;12.07;;;8.48;;
30543;SDS011;43388;46.308;4.600;2023-02-17T03:34:55;18.73;;;9.10;;
30543;SDS011;43388;46.308;4.600;2023-02-17T03:37:21;18.38;;;9.45;;
30543;SDS011;43388;46.308;4.600;2023-02-17T03:39:47;15.02;;;9.32;;
30543;SDS011;43388;46.308;4.600;2023-02-17T03:42:13;16.42;;;9.55;;
30543;SDS011;43388;46.308;4.600;2023-02-17T03:44:39;14.48;;;9.32;;
30543;SDS011;43388;46.308;4.600;2023-02-17T03:47:06;13.90;;;9.63;;
30543;SDS011;43388;46.308;4.600;2023-02-17T03:49:32;14.50;;;9.68;;
30543;SDS011;43388;46.308;4.600;2023-02-17T03:51:58;12.65;;;9.23;;
30543;SDS011;43388;46.308;4.600;2023-02-17T03:54:25;14.73;;;9.20;;
30543;SDS011;43388;46.308;4.600;2023-02-17T03:56:51;15.10;;;9.88;;
30543;SDS011;43388;46.308;4.600;2023-02-17T03:59:17;15.52;;;9.57;;
30543;SDS011;43388;46.308;4.600;2023-02-17T04:01:43;17.48;;;9.25;;
30543;SDS011;43388;46.308;4.600;2023-02-17T04:04:09;12.50;;;8.45;;
30543;SDS011;43388;46.308;4.600;2023-02-17T04:06:35;18.02;;;9.13;;
30543;SDS011;43388;46.308;4.600;2023-02-17T04:09:01;14.73;;;8.90;;
30543;SDS011;43388;46.308;4.600;2023-02-17T04:11:27;14.43;;;9.63;;
30543;SDS011;43388;46.308;4.600;2023-02-17T04:13:53;18.33;;;9.27;;
30543;SDS011;43388;46.308;4.600;2023-02-17T04:16:19;16.90;;;9.48;;
30543;SDS011;43388;46.308;4.600;2023-02-17T04:18:45;13.68;;;8.93;;
30543;SDS011;43388;46.308;4.600;2023-02-17T04:21:11;14.13;;;9.38;;
30543;SDS011;43388;46.308;4.600;2023-02-17T04:23:37;14.02;;;9.73;;
30543;SDS011;43388;46.308;4.600;2023-02-17T04:26:04;13.52;;;8.13;;
30543;SDS011;43388;46.308;4.600;2023-02-17T04:28:30;15.75;;;8.60;;
30543;SDS011;43388;46.308;4.600;2023-02-17T04:30:57;20.55;;;10.45;;
30543;SDS011;43388;46.308;4.600;2023-02-17T04:33:23;16.02;;;9.38;;
30543;SDS011;43388;46.308;4.600;2023-02-17T04:35:49;13.32;;;9.73;;
30543;SDS011;43388;46.308;4.600;2023-02-17T04:38:17;14.88;;;9.75;;
30543;SDS011;43388;46.308;4.600;2023-02-17T04:40:44;12.52;;;9.85;;
30543;SDS011;43388;46.308;4.600;2023-02-17T04:43:10;17.48;;;9.80;;
30543;SDS011;43388;46.308;4.600;2023-02-17T04:45:36;17.02;;;9.43;;
30543;SDS011;43388;46.308;4.600;2023-02-17T04:48:02;16.05;;;10.02;;
30543;SDS011;43388;46.308;4.600;2023-02-17T04:50:28;13.32;;;9.63;;
30543;SDS011;43388;46.308;4.600;2023-02-17T04:52:54;14.73;;;9.75;;
30543;SDS011;43388;46.308;4.600;2023-02-17T04:55:20;12.52;;;9.48;;
30543;SDS011;43388;46.308;4.600;2023-02-17T04:57:46;20.73;;;10.77;;
30543;SDS011;43388;46.308;4.600;2023-02-17T05:00:12;16.27;;;10.05;;
30543;SDS011;43388;46.308;4.600;2023-02-17T05:02:38;18.08;;;9.98;;
30543;SDS011;43388;46.308;4.600;2023-02-17T05:05:04;13.55;;;9.48;;
30543;SDS011;43388;46.308;4.600;2023-02-17T05:07:30;17.45;;;10.73;;
30543;SDS011;43388;46.308;4.600;2023-02-17T05:09:56;14.10;;;10.07;;
30543;SDS011;43388;46.308;4.600;2023-02-17T05:12:22;15.40;;;9.98;;
30543;SDS011;43388;46.308;4.600;2023-02-17T05:14:48;21.58;;;10.25;;
30543;SDS011;43388;46.308;4.600;2023-02-17T05:17:14;17.95;;;10.20;;
30543;SDS011;43388;46.308;4.600;2023-02-17T05:19:40;13.60;;;9.38;;
30543;SDS011;43388;46.308;4.600;2023-02-17T05:22:07;18.40;;;9.25;;
30543;SDS011;43388;46.308;4.600;2023-02-17T05:24:33;14.50;;;9.45;;
30543;SDS011;43388;46.308;4.600;2023-02-17T05:26:59;16.65;;;9.65;;
30543;SDS011;43388;46.308;4.600;2023-02-17T05:29:25;15.00;;;9.85;;
30543;SDS011;43388;46.308;4.600;2023-02-17T05:31:51;12.30;;;8.93;;
30543;SDS011;43388;46.308;4.600;2023-02-17T05:34:17;16.75;;;10.35;;
30543;SDS011;43388;46.308;4.600;2023-02-17T05:36:43;16.25;;;10.30;;
30543;SDS011;43388;46.308;4.600;2023-02-17T05:39:09;16.63;;;9.40;;
30543;SDS011;43388;46.308;4.600;2023-02-17T05:41:35;20.27;;;9.30;;
30543;SDS011;43388;46.308;4.600;2023-02-17T05:44:01;12.75;;;9.77;;
30543;SDS011;43388;46.308;4.600;2023-02-17T05:46:27;16.38;;;8.98;;
30543;SDS011;43388;46.308;4.600;2023-02-17T05:48:53;19.65;;;10.38;;
30543;SDS011;43388;46.308;4.600;2023-02-17T05:51:19;14.60;;;10.00;;
30543;SDS011;43388;46.308;4.600;2023-02-17T05:53:45;14.35;;;9.25;;
30543;SDS011;43388;46.308;4.600;2023-02-17T05:56:11;13.23;;;10.18;;
30543;SDS011;43388;46.308;4.600;2023-02-17T05:58:37;17.83;;;10.38;;
30543;SDS011;43388;46.308;4.600;2023-02-17T06:01:06;19.98;;;9.70;;
30543;SDS011;43388;46.308;4.600;2023-02-17T06:03:33;20.40;;;9.90;;
30543;SDS011;43388;46.308;4.600;2023-02-17T06:05:59;11.65;;;8.82;;
30543;SDS011;43388;46.308;4.600;2023-02-17T06:08:25;14.48;;;10.32;;
30543;SDS011;43388;46.308;4.600;2023-02-17T06:10:51;13.43;;;9.77;;
30543;SDS011;43388;46.308;4.600;2023-02-17T06:13:17;14.30;;;9.90;;
30543;SDS011;43388;46.308;4.600;2023-02-17T06:15:43;11.95;;;9.98;;
30543;SDS011;43388;46.308;4.600;2023-02-17T06:18:10;16.08;;;10.60;;
30543;SDS011;43388;46.308;4.600;2023-02-17T06:20:36;15.52;;;10.32;;
30543;SDS011;43388;46.308;4.600;2023-02-17T06:23:02;19.30;;;9.25;;
30543;SDS011;43388;46.308;4.600;2023-02-17T06:25:28;15.38;;;9.98;;
30543;SDS011;43388;46.308;4.600;2023-02-17T06:27:54;16.88;;;9.75;;
30543;SDS011;43388;46.308;4.600;2023-02-17T06:30:21;18.38;;;9.13;;
30543;SDS011;43388;46.308;4.600;2023-02-17T06:32:48;13.70;;;9.63;;
30543;SDS011;43388;46.308;4.600;2023-02-17T06:35:14;13.98;;;10.15;;
30543;SDS011;43388;46.308;4.600;2023-02-17T06:37:40;23.98;;;9.93;;
30543;SDS011;43388;46.308;4.600;2023-02-17T06:40:06;12.80;;;8.57;;
30543;SDS011;43388;46.308;4.600;2023-02-17T06:42:32;34.92;;;19.92;;
30543;SDS011;43388;46.308;4.600;2023-02-17T06:44:58;20.58;;;10.20;;
30543;SDS011;43388;46.308;4.600;2023-02-17T06:47:27;12.52;;;9.70;;
30543;SDS011;43388;46.308;4.600;2023-02-17T06:49:53;14.18;;;8.93;;
30543;SDS011;43388;46.308;4.600;2023-02-17T06:52:19;14.55;;;9.27;;
30543;SDS011;43388;46.308;4.600;2023-02-17T06:54:45;19.05;;;11.75;;
30543;SDS011;43388;46.308;4.600;2023-02-17T06:57:11;18.25;;;9.52;;
30543;SDS011;43388;46.308;4.600;2023-02-17T06:59:37;17.02;;;8.85;;
30543;SDS011;43388;46.308;4.600;2023-02-17T07:02:03;19.25;;;9.40;;
30543;SDS011;43388;46.308;4.600;2023-02-17T07:04:30;13.52;;;8.93;;
30543;SDS011;43388;46.308;4.600;2023-02-17T07:06:57;16.20;;;9.40;;
30543;SDS011;43388;46.308;4.600;2023-02-17T07:09:23;17.40;;;12.60;;
30543;SDS011;43388;46.308;4.600;2023-02-17T07:11:49;22.80;;;15.35;;
30543;SDS011;43388;46.308;4.600;2023-02-17T07:14:15;20.92;;;12.93;;
30543;SDS011;43388;46.308;4.600;2023-02-17T07:16:41;14.75;;;9.13;;
30543;SDS011;43388;46.308;4.600;2023-02-17T07:19:07;16.58;;;9.63;;
30543;SDS011;43388;46.308;4.600;2023-02-17T07:21:33;12.48;;;8.38;;
30543;SDS011;43388;46.308;4.600;2023-02-17T07:23:59;14.85;;;9.10;;
30543;SDS011;43388;46.308;4.600;2023-02-17T07:26:25;16.15;;;8.25;;
30543;SDS011;43388;46.308;4.600;2023-02-17T07:28:51;15.25;;;9.02;;
30543;SDS011;43388;46.308;4.600;2023-02-17T07:31:17;11.48;;;8.55;;
30543;SDS011;43388;46.308;4.600;2023-02-17T07:33:43;12.23;;;8.10;;
30543;SDS011;43388;46.308;4.600;2023-02-17T07:36:12;15.27;;;8.13;;
30543;SDS011;43388;46.308;4.600;2023-02-17T07:38:38;12.43;;;8.75;;
30543;SDS011;43388;46.308;4.600;2023-02-17T07:41:09;15.10;;;7.80;;
30543;SDS011;43388;46.308;4.600;2023-02-17T07:43:36;11.52;;;8.18;;
30543;SDS011;43388;46.308;4.600;2023-02-17T07:46:02;21.90;;;9.20;;
30543;SDS011;43388;46.308;4.600;2023-02-17T07:48:29;12.68;;;8.18;;
30543;SDS011;43388;46.308;4.600;2023-02-17T07:50:55;13.77;;;8.25;;
30543;SDS011;43388;46.308;4.600;2023-02-17T07:53:21;10.43;;;8.00;;
30543;SDS011;43388;46.308;4.600;2023-02-17T07:55:47;17.33;;;8.63;;
30543;SDS011;43388;46.308;4.600;2023-02-17T07:58:13;14.63;;;7.30;;
30543;SDS011;43388;46.308;4.600;2023-02-17T08:00:39;20.70;;;8.20;;
30543;SDS011;43388;46.308;4.600;2023-02-17T08:03:05;9.68;;;7.50;;
30543;SDS011;43388;46.308;4.600;2023-02-17T08:05:31;14.98;;;7.57;;
30543;SDS011;43388;46.308;4.600;2023-02-17T08:07:57;10.75;;;7.82;;
30543;SDS011;43388;46.308;4.600;2023-02-17T08:10:42;14.13;;;7.97;;
30543;SDS011;43388;46.308;4.600;2023-02-17T08:13:26;10.13;;;6.97;;
30543;SDS011;43388;46.308;4.600;2023-02-17T08:15:52;16.95;;;7.63;;
30543;SDS011;43388;46.308;4.600;2023-02-17T08:18:18;13.07;;;7.30;;
30543;SDS011;43388;46.308;4.600;2023-02-17T08:20:45;13.63;;;7.43;;
30543;SDS011;43388;46.308;4.600;2023-02-17T08:23:11;16.73;;;7.93;;
30543;SDS011;43388;46.308;4.600;2023-02-17T08:25:37;15.32;;;8.30;;
30543;SDS011;43388;46.308;4.600;2023-02-17T08:28:03;11.95;;;7.05;;
30543;SDS011;43388;46.308;4.600;2023-02-17T08:30:30;12.65;;;6.72;;
30543;SDS011;43388;46.308;4.600;2023-02-17T08:32:56;10.15;;;6.65;;
30543;SDS011;43388;46.308;4.600;2023-02-17T08:35:22;9.35;;;7.00;;
30543;SDS011;43388;46.308;4.600;2023-02-17T08:37:48;9.02;;;6.63;;
30543;SDS011;43388;46.308;4.600;2023-02-17T08:40:14;14.10;;;6.35;;
30543;SDS011;43388;46.308;4.600;2023-02-17T08:42:41;10.00;;;6.18;;
30543;SDS011;43388;46.308;4.600;2023-02-17T08:45:07;14.63;;;7.30;;
30543;SDS011;43388;46.308;4.600;2023-02-17T08:47:33;8.43;;;5.68;;
30543;SDS011;43388;46.308;4.600;2023-02-17T08:50:00;13.80;;;6.28;;
30543;SDS011;43388;46.308;4.600;2023-02-17T08:52:26;8.05;;;5.90;;
30543;SDS011;43388;46.308;4.600;2023-02-17T08:54:52;12.95;;;7.35;;
30543;SDS011;43388;46.308;4.600;2023-02-17T08:57:18;21.00;;;7.93;;
30543;SDS011;43388;46.308;4.600;2023-02-17T08:59:45;23.05;;;12.73;;
30543;SDS011;43388;46.308;4.600;2023-02-17T09:02:14;13.05;;;9.75;;
30543;SDS011;43388;46.308;4.600;2023-02-17T09:04:40;13.55;;;6.70;;
30543;SDS011;43388;46.308;4.600;2023-02-17T09:07:11;13.13;;;6.75;;
30543;SDS011;43388;46.308;4.600;2023-02-17T09:09:37;15.60;;;6.38;;
30543;SDS011;43388;46.308;4.600;2023-02-17T09:12:03;15.57;;;6.70;;
30543;SDS011;43388;46.308;4.600;2023-02-17T09:14:29;9.82;;;5.32;;
30543;SDS011;43388;46.308;4.600;2023-02-17T09:16:55;8.15;;;5.28;;
30543;SDS011;43388;46.308;4.600;2023-02-17T09:19:22;10.38;;;5.05;;
30543;SDS011;43388;46.308;4.600;2023-02-17T09:21:48;11.48;;;5.32;;
30543;SDS011;43388;46.308;4.600;2023-02-17T09:24:15;6.22;;;4.78;;
30543;SDS011;43388;46.308;4.600;2023-02-17T09:26:41;11.48;;;4.60;;
30543;SDS011;43388;46.308;4.600;2023-02-17T09:29:07;7.18;;;5.00;;
30543;SDS011;43388;46.308;4.600;2023-02-17T09:31:33;7.45;;;5.38;;
30543;SDS011;43388;46.308;4.600;2023-02-17T09:34:00;11.32;;;5.85;;
30543;SDS011;43388;46.308;4.600;2023-02-17T09:36:27;10.35;;;5.05;;
30543;SDS011;43388;46.308;4.600;2023-02-17T09:38:53;8.90;;;4.65;;
30543;SDS011;43388;46.308;4.600;2023-02-17T09:41:23;8.07;;;5.10;;
30543;SDS011;43388;46.308;4.600;2023-02-17T09:43:52;9.73;;;4.75;;
30543;SDS011;43388;46.308;4.600;2023-02-17T09:46:29;8.00;;;5.45;;
30543;SDS011;43388;46.308;4.600;2023-02-17T09:48:58;11.07;;;4.78;;
30543;SDS011;43388;46.308;4.600;2023-02-17T09:51:32;10.32;;;5.57;;
30543;SDS011;43388;46.308;4.600;2023-02-17T09:56:30;11.52;;;4.55;;
30543;SDS011;43388;46.308;4.600;2023-02-17T10:01:42;8.57;;;5.35;;
30543;SDS011;43388;46.308;4.600;2023-02-17T10:04:11;6.75;;;4.95;;
30543;SDS011;43388;46.308;4.600;2023-02-17T10:06:42;10.68;;;5.20;;
30543;SDS011;43388;46.308;4.600;2023-02-17T10:09:14;12.38;;;4.75;;
30543;SDS011;43388;46.308;4.600;2023-02-17T10:17:20;7.32;;;5.45;;
30543;SDS011;43388;46.308;4.600;2023-02-17T10:19:51;11.52;;;5.35;;
30543;SDS011;43388;46.308;4.600;2023-02-17T10:22:19;7.80;;;6.32;;
30543;SDS011;43388;46.308;4.600;2023-02-17T10:24:45;6.50;;;5.70;;
30543;SDS011;43388;46.308;4.600;2023-02-17T10:32:25;6.80;;;5.45;;
30543;SDS011;43388;46.308;4.600;2023-02-17T10:37:26;8.65;;;5.88;;
30543;SDS011;43388;46.308;4.600;2023-02-17T10:39:55;8.32;;;5.03;;
30543;SDS011;43388;46.308;4.600;2023-02-17T10:42:29;8.35;;;5.63;;
30543;SDS011;43388;46.308;4.600;2023-02-17T10:44:59;7.70;;;6.13;;
30543;SDS011;43388;46.308;4.600;2023-02-17T10:47:26;7.95;;;5.80;;
30543;SDS011;43388;46.308;4.600;2023-02-17T10:49:52;10.18;;;6.75;;
30543;SDS011;43388;46.308;4.600;2023-02-17T10:52:21;8.02;;;5.57;;
30543;SDS011;43388;46.308;4.600;2023-02-17T10:55:00;11.82;;;6.00;;
30543;SDS011;43388;46.308;4.600;2023-02-17T10:57:29;14.38;;;6.15;;
30543;SDS011;43388;46.308;4.600;2023-02-17T10:59:57;11.85;;;6.60;;
30543;SDS011;43388;46.308;4.600;2023-02-17T11:02:38;10.52;;;6.50;;
30543;SDS011;43388;46.308;4.600;2023-02-17T11:05:06;8.05;;;6.03;;
30543;SDS011;43388;46.308;4.600;2023-02-17T11:10:00;7.38;;;5.18;;
30543;SDS011;43388;46.308;4.600;2023-02-17T11:12:28;8.57;;;5.63;;
30543;SDS011;43388;46.308;4.600;2023-02-17T11:14:57;8.23;;;5.75;;
30543;SDS011;43388;46.308;4.600;2023-02-17T11:17:28;11.75;;;5.10;;
30543;SDS011;43388;46.308;4.600;2023-02-17T11:22:37;8.50;;;6.03;;
30543;SDS011;43388;46.308;4.600;2023-02-17T11:25:21;8.43;;;5.15;;
30543;SDS011;43388;46.308;4.600;2023-02-17T11:27:49;9.52;;;5.35;;
30543;SDS011;43388;46.308;4.600;2023-02-17T11:30:15;9.73;;;5.60;;
30543;SDS011;43388;46.308;4.600;2023-02-17T11:32:42;6.68;;;5.40;;
30543;SDS011;43388;46.308;4.600;2023-02-17T11:37:50;7.32;;;5.50;;
30543;SDS011;43388;46.308;4.600;2023-02-17T11:40:22;9.75;;;5.10;;
30543;SDS011;43388;46.308;4.600;2023-02-17T11:42:54;8.82;;;5.75;;
30543;SDS011;43388;46.308;4.600;2023-02-17T11:45:21;8.55;;;6.20;;
30543;SDS011;43388;46.308;4.600;2023-02-17T11:47:51;6.97;;;5.95;;
30543;SDS011;43388;46.308;4.600;2023-02-17T11:50:23;7.97;;;4.85;;
30543;SDS011;43388;46.308;4.600;2023-02-17T11:53:04;8.18;;;5.55;;
30543;SDS011;43388;46.308;4.600;2023-02-17T11:58:46;9.70;;;5.95;;
30543;SDS011;43388;46.308;4.600;2023-02-17T12:03:32;6.68;;;5.65;;
30543;SDS011;43388;46.308;4.600;2023-02-17T12:08:37;6.47;;;5.88;;
30543;SDS011;43388;46.308;4.600;2023-02-17T12:11:08;7.88;;;5.93;;
30543;SDS011;43388;46.308;4.600;2023-02-17T12:26:43;8.57;;;5.88;;
30543;SDS011;43388;46.308;4.600;2023-02-17T12:34:19;7.90;;;5.25;;
30543;SDS011;43388;46.308;4.600;2023-02-17T12:36:46;7.60;;;5.28;;
30543;SDS011;43388;46.308;4.600;2023-02-17T12:41:40;6.82;;;5.85;;
30543;SDS011;43388;46.308;4.600;2023-02-17T12:44:11;6.25;;;5.55;;
30543;SDS011;43388;46.308;4.600;2023-02-17T12:46:40;5.78;;;4.95;;
30543;SDS011;43388;46.308;4.600;2023-02-17T12:51:48;8.88;;;4.80;;
30543;SDS011;43388;46.308;4.600;2023-02-17T12:54:23;5.68;;;5.18;;
30543;SDS011;43388;46.308;4.600;2023-02-17T12:59:39;8.05;;;4.85;;
30543;SDS011;43388;46.308;4.600;2023-02-17T13:04:34;5.88;;;5.32;;
30543;SDS011;43388;46.308;4.600;2023-02-17T13:07:03;8.25;;;5.22;;
30543;SDS011;43388;46.308;4.600;2023-02-17T13:09:38;7.50;;;5.55;;
30543;SDS011;43388;46.308;4.600;2023-02-17T13:12:09;8.20;;;5.35;;
30543;SDS011;43388;46.308;4.600;2023-02-17T13:14:39;6.53;;;5.80;;
30543;SDS011;43388;46.308;4.600;2023-02-17T13:17:20;6.15;;;5.47;;
30543;SDS011;43388;46.308;4.600;2023-02-17T13:19:46;5.55;;;5.07;;
30543;SDS011;43388;46.308;4.600;2023-02-17T13:22:20;5.45;;;4.72;;
30543;SDS011;43388;46.308;4.600;2023-02-17T13:24:50;6.13;;;5.05;;
30543;SDS011;43388;46.308;4.600;2023-02-17T13:27:20;5.22;;;4.53;;
30543;SDS011;43388;46.308;4.600;2023-02-17T13:29:57;4.55;;;4.13;;
30543;SDS011;43388;46.308;4.600;2023-02-17T13:32:26;4.60;;;4.20;;
30543;SDS011;43388;46.308;4.600;2023-02-17T13:35:01;5.00;;;4.47;;
30543;SDS011;43388;46.308;4.600;2023-02-17T13:39:59;5.47;;;4.97;;
30543;SDS011;43388;46.308;4.600;2023-02-17T13:42:37;9.25;;;5.32;;
30543;SDS011;43388;46.308;4.600;2023-02-17T13:47:44;6.38;;;4.60;;
30543;SDS011;43388;46.308;4.600;2023-02-17T13:50:25;4.88;;;4.22;;
30543;SDS011;43388;46.308;4.600;2023-02-17T13:52:55;5.60;;;5.05;;
30543;SDS011;43388;46.308;4.600;2023-02-17T13:55:21;6.57;;;5.10;;
30543;SDS011;43388;46.308;4.600;2023-02-17T13:57:55;5.10;;;4.60;;
30543;SDS011;43388;46.308;4.600;2023-02-17T14:00:22;7.10;;;4.68;;
30543;SDS011;43388;46.308;4.600;2023-02-17T14:02:55;5.50;;;4.97;;
30543;SDS011;43388;46.308;4.600;2023-02-17T14:05:25;6.00;;;5.50;;
30543;SDS011;43388;46.308;4.600;2023-02-17T14:07:51;5.38;;;4.90;;
30543;SDS011;43388;46.308;4.600;2023-02-17T14:10:21;5.63;;;4.93;;
30543;SDS011;43388;46.308;4.600;2023-02-17T14:12:48;5.20;;;4.70;;
30543;SDS011;43388;46.308;4.600;2023-02-17T14:15:16;5.88;;;5.22;;
30543;SDS011;43388;46.308;4.600;2023-02-17T14:17:42;5.53;;;5.03;;
30543;SDS011;43388;46.308;4.600;2023-02-17T14:20:23;6.05;;;5.47;;
30543;SDS011;43388;46.308;4.600;2023-02-17T14:22:57;7.43;;;5.38;;
30543;SDS011;43388;46.308;4.600;2023-02-17T14:25:28;5.22;;;4.72;;
30543;SDS011;43388;46.308;4.600;2023-02-17T14:27:54;5.40;;;4.90;;
30543;SDS011;43388;46.308;4.600;2023-02-17T14:38:32;5.28;;;4.85;;
30543;SDS011;43388;46.308;4.600;2023-02-17T14:41:04;5.22;;;4.82;;
30543;SDS011;43388;46.308;4.600;2023-02-17T14:43:30;5.60;;;5.00;;
30543;SDS011;43388;46.308;4.600;2023-02-17T14:45:56;5.20;;;4.80;;
30543;SDS011;43388;46.308;4.600;2023-02-17T14:48:23;8.88;;;5.30;;
30543;SDS011;43388;46.308;4.600;2023-02-17T14:50:50;5.35;;;4.85;;
30543;SDS011;43388;46.308;4.600;2023-02-17T14:53:33;5.65;;;5.15;;
30543;SDS011;43388;46.308;4.600;2023-02-17T14:56:14;6.30;;;5.70;;
30543;SDS011;43388;46.308;4.600;2023-02-17T14:58:43;6.05;;;4.82;;
30543;SDS011;43388;46.308;4.600;2023-02-17T15:01:13;7.22;;;5.50;;
30543;SDS011;43388;46.308;4.600;2023-02-17T15:03:39;6.85;;;5.65;;
30543;SDS011;43388;46.308;4.600;2023-02-17T15:06:25;7.65;;;6.82;;
30543;SDS011;43388;46.308;4.600;2023-02-17T15:08:52;7.63;;;6.75;;
30543;SDS011;43388;46.308;4.600;2023-02-17T15:11:19;6.97;;;6.30;;
30543;SDS011;43388;46.308;4.600;2023-02-17T15:13:45;8.57;;;6.57;;
30543;SDS011;43388;46.308;4.600;2023-02-17T15:16:11;9.05;;;6.70;;
30543;SDS011;43388;46.308;4.600;2023-02-17T15:18:37;6.90;;;6.30;;
30543;SDS011;43388;46.308;4.600;2023-02-17T15:21:13;7.90;;;7.15;;
30543;SDS011;43388;46.308;4.600;2023-02-17T15:23:40;8.70;;;7.68;;
30543;SDS011;43388;46.308;4.600;2023-02-17T15:26:07;7.57;;;6.88;;
30543;SDS011;43388;46.308;4.600;2023-02-17T15:28:34;7.50;;;6.25;;
30543;SDS011;43388;46.308;4.600;2023-02-17T15:31:00;8.18;;;6.50;;
30543;SDS011;43388;46.308;4.600;2023-02-17T15:33:26;11.77;;;7.60;;
30543;SDS011;43388;46.308;4.600;2023-02-17T15:35:52;11.45;;;7.25;;
30543;SDS011;43388;46.308;4.600;2023-02-17T15:38:18;11.05;;;7.80;;
30543;SDS011;43388;46.308;4.600;2023-02-17T15:40:44;7.40;;;5.97;;
30543;SDS011;43388;46.308;4.600;2023-02-17T15:43:14;8.80;;;7.47;;
30543;SDS011;43388;46.308;4.600;2023-02-17T15:45:41;11.20;;;7.38;;
30543;SDS011;43388;46.308;4.600;2023-02-17T15:48:28;9.10;;;7.38;;
30543;SDS011;43388;46.308;4.600;2023-02-17T15:50:58;7.45;;;6.60;;
30543;SDS011;43388;46.308;4.600;2023-02-17T15:53:24;9.65;;;7.20;;
30543;SDS011;43388;46.308;4.600;2023-02-17T15:55:50;10.90;;;9.15;;
30543;SDS011;43388;46.308;4.600;2023-02-17T15:58:17;9.82;;;7.18;;
30543;SDS011;43388;46.308;4.600;2023-02-17T16:00:44;9.50;;;8.07;;
30543;SDS011;43388;46.308;4.600;2023-02-17T16:03:13;8.52;;;7.53;;
30543;SDS011;43388;46.308;4.600;2023-02-17T16:05:39;9.48;;;7.82;;
30543;SDS011;43388;46.308;4.600;2023-02-17T16:08:05;10.90;;;6.95;;
30543;SDS011;43388;46.308;4.600;2023-02-17T16:10:32;12.27;;;7.32;;
30543;SDS011;43388;46.308;4.600;2023-02-17T16:12:59;11.10;;;8.10;;
30543;SDS011;43388;46.308;4.600;2023-02-17T16:15:26;9.43;;;8.15;;
30543;SDS011;43388;46.308;4.600;2023-02-17T16:17:53;7.40;;;6.70;;
30543;SDS011;43388;46.308;4.600;2023-02-17T16:20:30;9.32;;;8.40;;